Time;durP1;ratioP1;P1;durP2;ratioP2;P2;SDS_P1;SDS_P2;PMS_P1;PMS_P2;Temp;Humidity;BMP_temperature;BMP_pressure;BME280_temperature;BME280_humidity;BME280_pressure;Samples;Min_cycle;Max_cycle;Signal;HPM_P1;HPM_P2
2023/09/27 00:00:39;;;;;;;31.52;28.65;;;14.20;99.90;;;;;;4999532;28;20049;-45
2023/09/27 00:03:05;;;;;;;32.55;29.45;;;14.20;99.90;;;;;;4974759;28;20045;-44
2023/09/27 00:05:31;;;;;;;32.38;29.27;;;14.10;99.90;;;;;;5000207;28;20046;-46
2023/09/27 00:07:57;;;;;;;31.75;28.58;;;14.10;99.90;;;;;;4999263;28;20492;-44
2023/09/27 00:10:23;;;;;;;32.63;29.10;;;14.10;99.90;;;;;;4999827;28;20062;-46
2023/09/27 00:12:49;;;;;;;32.42;29.08;;;14.10;99.90;;;;;;4966511;28;20053;-47
2023/09/27 00:15:14;;;;;;;32.95;29.80;;;14.00;99.90;;;;;;4982014;28;20045;-44
2023/09/27 00:17:41;;;;;;;33.75;30.63;;;14.00;99.90;;;;;;4999230;28;20049;-46
2023/09/27 00:20:10;;;;;;;32.45;29.35;;;14.00;99.90;;;;;;4999742;28;20468;-45
2023/09/27 00:22:37;;;;;;;36.05;32.58;;;13.90;99.90;;;;;;4999791;28;20050;-45
2023/09/27 00:25:08;;;;;;;34.63;31.30;;;13.90;99.90;;;;;;5000177;28;20038;-47
2023/09/27 00:27:34;;;;;;;36.35;32.95;;;13.80;99.90;;;;;;4999559;28;20139;-47
2023/09/27 00:30:00;;;;;;;35.92;32.38;;;13.80;99.90;;;;;;4981962;28;20042;-46
2023/09/27 00:32:26;;;;;;;36.20;32.65;;;13.80;99.90;;;;;;5000153;28;20049;-45
2023/09/27 00:34:51;;;;;;;36.30;32.95;;;13.80;99.90;;;;;;4965717;28;20076;-45
2023/09/27 00:37:17;;;;;;;37.50;34.00;;;13.80;99.90;;;;;;5000052;28;20532;-45
2023/09/27 00:39:43;;;;;;;34.08;30.85;;;13.80;99.90;;;;;;4981328;28;20045;-46
2023/09/27 00:42:08;;;;;;;37.05;33.33;;;13.80;99.90;;;;;;4991501;28;20053;-47
2023/09/27 00:44:34;;;;;;;36.05;32.65;;;13.70;99.90;;;;;;4961423;28;20046;-45
2023/09/27 00:47:03;;;;;;;35.40;32.20;;;13.70;99.90;;;;;;4988906;28;20077;-46
2023/09/27 00:49:29;;;;;;;36.08;32.65;;;13.70;99.90;;;;;;4998992;28;20485;-45
2023/09/27 00:51:56;;;;;;;36.58;33.10;;;13.70;99.90;;;;;;5001975;28;20073;-49
2023/09/27 00:54:22;;;;;;;36.42;33.03;;;13.70;99.90;;;;;;5003055;28;20124;-47
2023/09/27 00:56:49;;;;;;;38.33;34.50;;;13.70;99.90;;;;;;5002897;28;20056;-47
2023/09/27 00:59:16;;;;;;;33.72;30.25;;;13.70;99.90;;;;;;4984619;28;20053;-48
2023/09/27 01:01:42;;;;;;;36.05;32.42;;;13.70;99.90;;;;;;4999361;28;20042;-46
2023/09/27 01:04:08;;;;;;;33.78;30.50;;;13.70;99.90;;;;;;4968747;28;20224;-46
2023/09/27 01:06:34;;;;;;;34.70;31.40;;;13.70;99.90;;;;;;5002877;28;20075;-45
2023/09/27 01:09:00;;;;;;;32.47;29.35;;;13.70;99.90;;;;;;5002342;28;20049;-45
2023/09/27 01:11:27;;;;;;;31.58;28.63;;;13.70;99.90;;;;;;4984891;28;20054;-48
2023/09/27 01:13:53;;;;;;;32.33;29.23;;;13.70;99.90;;;;;;4984429;28;20670;-44
2023/09/27 01:16:19;;;;;;;30.52;27.73;;;13.60;99.90;;;;;;5002191;28;20038;-44
2023/09/27 01:18:44;;;;;;;31.35;28.23;;;13.60;99.90;;;;;;4984734;28;20493;-45
2023/09/27 01:21:10;;;;;;;30.75;27.80;;;13.60;99.90;;;;;;4985122;28;20072;-44
2023/09/27 01:23:39;;;;;;;32.95;29.42;;;13.60;99.90;;;;;;5002521;28;20046;-46
2023/09/27 01:26:07;;;;;;;29.92;27.25;;;13.60;99.90;;;;;;5002236;28;20436;-47
2023/09/27 01:28:33;;;;;;;29.63;26.90;;;13.60;99.90;;;;;;5002711;28;20057;-45
2023/09/27 01:30:59;;;;;;;29.92;27.23;;;13.60;99.90;;;;;;4985002;28;20496;-47
2023/09/27 01:33:25;;;;;;;30.20;27.27;;;13.50;99.90;;;;;;4984428;28;20045;-46
2023/09/27 01:35:51;;;;;;;29.05;26.55;;;13.50;99.90;;;;;;5001124;28;20427;-46
2023/09/27 01:38:17;;;;;;;27.88;25.30;;;13.40;99.90;;;;;;4983653;28;20050;-47
2023/09/27 01:40:44;;;;;;;27.30;24.90;;;13.40;99.90;;;;;;5002078;28;20054;-48
2023/09/27 01:43:11;;;;;;;26.77;24.10;;;13.40;99.90;;;;;;4989559;28;20153;-46
2023/09/27 01:45:36;;;;;;;32.33;29.38;;;13.40;99.90;;;;;;5002180;28;20050;-49
2023/09/27 01:48:04;;;;;;;34.17;30.95;;;13.30;99.90;;;;;;4967445;28;20045;-48
2023/09/27 01:50:32;;;;;;;33.45;30.10;;;13.30;99.90;;;;;;5002317;28;20069;-47
2023/09/27 01:52:58;;;;;;;34.67;31.42;;;13.30;99.90;;;;;;5001992;28;20049;-49
2023/09/27 01:55:24;;;;;;;31.63;28.67;;;13.30;99.90;;;;;;5001802;28;20513;-44
2023/09/27 01:57:50;;;;;;;30.42;27.30;;;13.30;99.90;;;;;;5000722;28;20549;-48
2023/09/27 02:00:18;;;;;;;30.08;26.77;;;13.30;99.90;;;;;;5001741;28;20045;-44
2023/09/27 02:02:45;;;;;;;29.63;26.80;;;13.30;99.90;;;;;;4977081;28;20046;-45
2023/09/27 02:05:10;;;;;;;27.98;25.35;;;13.20;99.90;;;;;;4982687;28;20080;-48
2023/09/27 02:07:40;;;;;;;28.13;25.45;;;13.20;99.90;;;;;;4999845;28;20435;-44
2023/09/27 02:10:11;;;;;;;32.20;29.30;;;13.20;99.90;;;;;;5001604;28;20054;-45
2023/09/27 02:12:37;;;;;;;28.27;25.50;;;13.10;99.90;;;;;;4996398;28;20058;-44
2023/09/27 02:15:10;;;;;;;29.83;26.88;;;13.10;99.90;;;;;;4983659;28;20136;-44
2023/09/27 02:17:41;;;;;;;31.10;28.10;;;13.10;99.90;;;;;;5001207;28;20064;-45
2023/09/27 02:20:12;;;;;;;31.05;27.85;;;13.10;99.90;;;;;;4983641;28;20388;-44
2023/09/27 02:22:40;;;;;;;35.03;31.70;;;13.10;99.90;;;;;;5001304;28;20145;-44
2023/09/27 02:25:11;;;;;;;31.23;28.33;;;13.10;99.90;;;;;;5001673;28;20171;-44
2023/09/27 02:27:37;;;;;;;29.05;26.05;;;13.00;99.90;;;;;;4983022;28;20459;-44
2023/09/27 02:30:06;;;;;;;27.92;25.27;;;13.10;99.90;;;;;;5001653;28;20125;-44
2023/09/27 02:32:32;;;;;;;30.98;27.85;;;13.10;99.90;;;;;;5001652;28;20497;-44
2023/09/27 02:34:58;;;;;;;31.70;28.23;;;13.00;99.90;;;;;;4967445;28;20088;-44
2023/09/27 02:37:24;;;;;;;29.13;26.55;;;13.00;99.90;;;;;;4982317;28;20125;-44
2023/09/27 02:39:50;;;;;;;29.02;26.35;;;13.00;99.90;;;;;;4983512;28;20077;-44
2023/09/27 02:42:15;;;;;;;30.52;27.67;;;13.00;99.90;;;;;;5000124;28;20073;-45
2023/09/27 02:44:41;;;;;;;28.90;26.27;;;13.00;99.90;;;;;;5001304;28;20049;-45
2023/09/27 02:47:07;;;;;;;30.50;27.42;;;13.00;99.90;;;;;;4983231;28;20479;-44
2023/09/27 02:49:37;;;;;;;32.78;29.63;;;13.00;99.90;;;;;;4982937;28;20044;-44
2023/09/27 02:52:03;;;;;;;31.15;28.25;;;13.00;99.90;;;;;;5001451;28;20037;-45
2023/09/27 02:54:29;;;;;;;28.77;25.98;;;13.00;99.90;;;;;;5001373;28;20081;-44
2023/09/27 02:56:54;;;;;;;27.63;24.98;;;12.90;99.90;;;;;;5000585;28;20815;-44
2023/09/27 02:59:20;;;;;;;28.30;25.70;;;12.90;99.90;;;;;;5000406;28;20511;-44
2023/09/27 03:01:46;;;;;;;25.38;23.05;;;12.90;99.90;;;;;;4999678;28;20820;-46
2023/09/27 03:04:12;;;;;;;24.77;22.45;;;12.90;99.90;;;;;;4982696;28;20038;-44
2023/09/27 03:06:39;;;;;;;28.92;26.17;;;12.80;99.90;;;;;;4982638;28;20771;-45
2023/09/27 03:09:05;;;;;;;32.90;29.65;;;12.80;99.90;;;;;;5000647;28;20041;-45
2023/09/27 03:11:33;;;;;;;34.25;31.02;;;12.80;99.90;;;;;;5001009;28;20453;-44
2023/09/27 03:13:59;;;;;;;34.58;31.17;;;12.90;99.90;;;;;;4982804;28;20069;-44
2023/09/27 03:16:25;;;;;;;34.28;30.63;;;12.80;99.90;;;;;;4966223;28;20088;-44
2023/09/27 03:18:51;;;;;;;35.42;31.98;;;12.90;99.90;;;;;;4999870;28;20125;-44
2023/09/27 03:21:17;;;;;;;34.60;31.17;;;12.90;99.90;;;;;;5000567;28;20045;-44
2023/09/27 03:23:46;;;;;;;35.65;32.05;;;12.90;99.90;;;;;;4966417;28;20405;-44
2023/09/27 03:26:12;;;;;;;35.22;31.83;;;12.90;99.90;;;;;;5000372;28;20049;-44
2023/09/27 03:28:38;;;;;;;38.35;34.38;;;12.90;99.90;;;;;;5000306;28;20052;-44
2023/09/27 03:31:05;;;;;;;37.65;34.05;;;12.90;99.90;;;;;;5000822;28;20123;-44
2023/09/27 03:33:31;;;;;;;36.17;32.53;;;12.90;99.90;;;;;;5000467;28;20145;-44
2023/09/27 03:35:57;;;;;;;38.70;34.95;;;12.90;99.90;;;;;;4982079;28;20184;-46
2023/09/27 03:38:23;;;;;;;38.80;34.88;;;12.80;99.90;;;;;;4999665;28;20041;-46
2023/09/27 03:40:48;;;;;;;38.83;35.00;;;12.80;99.90;;;;;;5000777;28;20041;-45
2023/09/27 03:43:14;;;;;;;39.72;35.72;;;12.70;99.90;;;;;;4995381;28;20383;-44
2023/09/27 03:45:40;;;;;;;39.58;35.78;;;12.70;99.90;;;;;;5000079;28;20073;-43
2023/09/27 03:48:06;;;;;;;37.95;34.15;;;12.70;99.90;;;;;;5000137;28;20042;-44
2023/09/27 03:50:31;;;;;;;37.72;33.97;;;12.70;99.90;;;;;;5000777;28;20038;-45
2023/09/27 03:52:58;;;;;;;37.92;34.33;;;12.70;99.90;;;;;;4965919;28;20046;-44
2023/09/27 03:55:24;;;;;;;38.75;35.17;;;12.60;99.90;;;;;;5000476;28;20046;-45
2023/09/27 03:57:50;;;;;;;37.78;34.13;;;12.60;99.90;;;;;;4999489;28;20064;-45
2023/09/27 04:00:17;;;;;;;34.47;31.27;;;12.60;99.90;;;;;;5000208;28;20042;-43
2023/09/27 04:02:44;;;;;;;38.25;34.50;;;12.60;99.90;;;;;;4992893;28;20050;-44
2023/09/27 04:05:10;;;;;;;38.20;34.53;;;12.60;99.90;;;;;;4981248;28;20229;-46
2023/09/27 04:07:36;;;;;;;39.00;35.00;;;12.60;99.90;;;;;;4998389;28;20152;-45
2023/09/27 04:10:06;;;;;;;37.42;33.85;;;12.50;99.90;;;;;;5000191;28;20115;-45
2023/09/27 04:12:32;;;;;;;36.25;32.78;;;12.50;99.90;;;;;;4998571;28;20060;-45
2023/09/27 04:14:57;;;;;;;38.45;34.47;;;12.50;99.90;;;;;;5000025;28;20045;-44
2023/09/27 04:17:23;;;;;;;36.13;32.47;;;12.50;99.90;;;;;;4981645;28;20121;-44
2023/09/27 04:19:53;;;;;;;38.83;35.08;;;12.50;99.90;;;;;;4982450;28;20049;-46
2023/09/27 04:22:19;;;;;;;40.45;36.17;;;12.40;99.90;;;;;;5000058;28;20041;-45
2023/09/27 04:24:44;;;;;;;38.90;35.00;;;12.40;99.90;;;;;;4982671;28;20143;-45
2023/09/27 04:27:10;;;;;;;40.78;36.72;;;12.40;99.90;;;;;;5002583;28;20042;-44
2023/09/27 04:29:35;;;;;;;37.00;33.35;;;12.40;99.90;;;;;;4969812;28;20045;-45
2023/09/27 04:32:01;;;;;;;35.10;31.85;;;12.40;99.90;;;;;;5003925;28;20520;-47
2023/09/27 04:34:28;;;;;;;37.40;33.75;;;12.40;99.90;;;;;;5003701;28;20053;-45
2023/09/27 04:36:53;;;;;;;38.88;34.80;;;12.30;99.90;;;;;;4985880;28;20065;-44
2023/09/27 04:39:20;;;;;;;36.63;33.15;;;12.30;99.90;;;;;;4985237;28;20042;-47
2023/09/27 04:41:46;;;;;;;36.60;32.97;;;12.30;99.90;;;;;;4980746;28;20081;-46
2023/09/27 04:44:15;;;;;;;37.15;33.60;;;12.30;99.90;;;;;;4996235;28;20057;-45
2023/09/27 04:46:41;;;;;;;38.72;34.95;;;12.30;99.90;;;;;;5003053;28;20487;-44
2023/09/27 04:49:07;;;;;;;37.60;33.97;;;12.20;99.90;;;;;;4985471;28;20050;-44
2023/09/27 04:51:33;;;;;;;41.45;37.25;;;12.20;99.90;;;;;;5003229;28;20528;-44
2023/09/27 04:54:03;;;;;;;42.88;38.38;;;12.20;99.90;;;;;;4985597;28;20054;-45
2023/09/27 04:56:29;;;;;;;41.58;37.47;;;12.20;99.90;;;;;;4990038;28;20045;-44
2023/09/27 04:58:56;;;;;;;38.22;34.70;;;12.20;99.90;;;;;;5002506;28;20520;-44
2023/09/27 05:01:22;;;;;;;34.63;31.15;;;12.10;99.90;;;;;;5002067;28;20041;-44
2023/09/27 05:03:49;;;;;;;34.15;31.05;;;12.20;99.90;;;;;;4979548;28;20808;-44
2023/09/27 05:06:15;;;;;;;37.22;33.88;;;12.10;99.90;;;;;;5002796;28;20080;-44
2023/09/27 05:08:40;;;;;;;36.47;32.67;;;12.10;99.90;;;;;;5002917;28;20041;-44
2023/09/27 05:11:06;;;;;;;35.67;29.55;;;12.10;99.90;;;;;;4995649;28;20133;-44
2023/09/27 05:13:32;;;;;;;32.45;29.20;;;12.00;99.90;;;;;;4997441;28;20046;-45
2023/09/27 05:15:57;;;;;;;32.35;29.33;;;12.00;99.90;;;;;;5002675;28;20465;-47
2023/09/27 05:18:23;;;;;;;32.25;29.35;;;12.00;99.90;;;;;;5002477;28;20124;-45
2023/09/27 05:20:49;;;;;;;32.58;29.30;;;12.10;99.90;;;;;;4968866;28;20041;-45
2023/09/27 05:23:14;;;;;;;29.98;26.92;;;12.00;99.90;;;;;;4984513;28;20037;-45
2023/09/27 05:25:40;;;;;;;29.58;26.75;;;12.00;99.90;;;;;;4984310;28;21187;-44
2023/09/27 05:28:06;;;;;;;29.85;26.95;;;12.00;99.90;;;;;;4983927;28;20053;-44
2023/09/27 05:30:32;;;;;;;29.92;27.15;;;12.00;99.90;;;;;;4984662;28;20046;-43
2023/09/27 05:32:57;;;;;;;33.22;29.92;;;12.10;99.90;;;;;;4984427;28;20049;-47
2023/09/27 05:35:23;;;;;;;29.48;26.83;;;12.10;99.90;;;;;;4968247;28;20042;-45
2023/09/27 05:37:50;;;;;;;31.58;28.60;;;12.10;99.90;;;;;;5000376;28;20054;-45
2023/09/27 05:40:16;;;;;;;30.40;27.63;;;12.10;99.90;;;;;;4984418;28;20044;-46
2023/09/27 05:42:42;;;;;;;31.75;28.77;;;12.10;99.90;;;;;;4989752;28;20472;-45
2023/09/27 05:45:11;;;;;;;28.63;26.02;;;12.20;99.90;;;;;;4984626;28;20081;-46
2023/09/27 05:47:39;;;;;;;35.55;32.00;;;12.20;99.90;;;;;;4983665;28;20092;-45
2023/09/27 05:50:08;;;;;;;32.83;29.63;;;12.20;99.90;;;;;;5005212;28;20046;-44
2023/09/27 05:52:35;;;;;;;31.70;28.70;;;12.30;99.90;;;;;;5001908;28;20078;-45
2023/09/27 05:55:01;;;;;;;31.40;28.30;;;12.30;99.90;;;;;;5001196;28;20662;-44
2023/09/27 05:57:28;;;;;;;34.15;30.95;;;12.40;99.90;;;;;;4997782;28;20124;-44
2023/09/27 05:59:54;;;;;;;33.10;29.98;;;12.50;99.90;;;;;;5001131;28;20092;-46
2023/09/27 06:02:20;;;;;;;31.02;28.05;;;12.60;99.90;;;;;;4977996;28;20046;-45
2023/09/27 06:04:46;;;;;;;30.85;27.60;;;12.60;99.90;;;;;;5001674;28;20045;-46
2023/09/27 06:07:14;;;;;;;31.27;28.48;;;12.70;99.90;;;;;;5000883;28;20473;-45
2023/09/27 06:09:43;;;;;;;31.35;28.42;;;12.70;99.90;;;;;;4980401;28;20465;-45
2023/09/27 06:12:10;;;;;;;31.25;28.45;;;12.70;99.90;;;;;;4966771;28;20092;-45
2023/09/27 06:14:36;;;;;;;30.98;28.23;;;12.80;99.90;;;;;;5001433;28;20033;-44
2023/09/27 06:17:03;;;;;;;33.28;30.25;;;12.80;99.90;;;;;;5000643;28;20045;-47
2023/09/27 06:19:30;;;;;;;32.13;29.08;;;12.90;99.90;;;;;;4983033;28;20044;-48
2023/09/27 06:21:55;;;;;;;34.88;31.65;;;12.90;99.90;;;;;;5000314;28;20041;-44
2023/09/27 06:24:23;;;;;;;32.13;29.10;;;12.80;99.90;;;;;;5000626;28;20071;-47
2023/09/27 06:26:48;;;;;;;30.98;28.02;;;12.90;99.90;;;;;;5000798;28;20076;-46
2023/09/27 06:29:14;;;;;;;34.28;31.17;;;13.00;99.90;;;;;;5000612;28;20117;-46
2023/09/27 06:31:40;;;;;;;36.38;32.78;;;13.00;99.90;;;;;;4966781;28;20049;-44
2023/09/27 06:34:06;;;;;;;35.97;32.55;;;13.00;99.90;;;;;;5001087;28;20050;-44
2023/09/27 06:36:34;;;;;;;35.28;31.52;;;13.10;99.90;;;;;;5000171;28;20084;-45
2023/09/27 06:39:01;;;;;;;36.55;33.20;;;13.20;99.90;;;;;;4982156;28;20049;-45
2023/09/27 06:41:27;;;;;;;33.80;30.60;;;13.40;99.90;;;;;;4997206;28;20084;-48
2023/09/27 06:43:53;;;;;;;35.30;31.90;;;13.60;99.90;;;;;;4990845;28;20140;-47
2023/09/27 06:46:19;;;;;;;33.78;30.70;;;14.00;99.90;;;;;;5001016;28;20041;-48
2023/09/27 06:48:45;;;;;;;31.65;28.92;;;14.20;99.90;;;;;;4983388;28;20057;-44
2023/09/27 06:51:13;;;;;;;34.60;31.38;;;14.40;99.90;;;;;;4983154;28;20057;-44
2023/09/27 06:53:39;;;;;;;34.35;31.10;;;14.50;99.90;;;;;;5000562;28;20458;-44
2023/09/27 06:56:06;;;;;;;32.70;29.70;;;14.70;99.90;;;;;;4982914;28;20049;-45
2023/09/27 06:58:32;;;;;;;35.55;32.25;;;14.80;99.90;;;;;;5000216;28;20493;-47
2023/09/27 07:00:58;;;;;;;34.63;31.38;;;14.90;99.90;;;;;;4982002;28;20065;-49
2023/09/27 07:03:24;;;;;;;36.92;33.30;;;15.00;99.90;;;;;;4993266;28;20714;-46
2023/09/27 07:05:54;;;;;;;35.70;32.25;;;15.00;99.90;;;;;;4999434;28;20046;-49
2023/09/27 07:08:21;;;;;;;36.97;33.30;;;15.10;99.90;;;;;;4999930;28;20441;-46
2023/09/27 07:10:47;;;;;;;34.85;31.73;;;15.10;99.90;;;;;;4999795;28;20101;-45
2023/09/27 07:13:13;;;;;;;39.10;35.47;;;15.10;99.90;;;;;;5000569;28;20563;-46
2023/09/27 07:15:38;;;;;;;38.08;34.53;;;15.10;99.90;;;;;;4983085;28;20046;-44
2023/09/27 07:18:05;;;;;;;36.85;33.35;;;15.10;99.90;;;;;;5001234;28;20070;-47
2023/09/27 07:20:36;;;;;;;39.22;35.60;;;15.10;99.90;;;;;;5001149;28;20057;-45
2023/09/27 07:23:07;;;;;;;38.08;34.55;;;15.30;99.90;;;;;;4983592;28;20057;-45
2023/09/27 07:25:35;;;;;;;36.00;32.67;;;15.50;99.90;;;;;;5001460;28;20278;-49
2023/09/27 07:28:03;;;;;;;37.08;33.50;;;15.70;99.90;;;;;;5000968;28;20060;-46
2023/09/27 07:30:29;;;;;;;35.42;32.30;;;15.80;99.90;;;;;;4983910;28;20042;-46
2023/09/27 07:32:56;;;;;;;34.40;31.30;;;16.00;99.90;;;;;;4983429;28;20045;-47
2023/09/27 07:35:23;;;;;;;34.85;31.67;;;16.00;99.90;;;;;;4983874;28;20413;-47
2023/09/27 07:37:49;;;;;;;34.40;31.10;;;16.10;99.90;;;;;;5001290;28;20042;-44
2023/09/27 07:40:15;;;;;;;35.33;32.08;;;16.10;99.90;;;;;;5001772;28;20034;-45
2023/09/27 07:42:42;;;;;;;36.28;32.72;;;16.20;99.90;;;;;;4970969;28;20042;-44
2023/09/27 07:45:21;;;;;;;36.28;32.47;;;16.30;99.90;;;;;;5001202;28;20143;-45
2023/09/27 07:47:48;;;;;;;34.58;31.55;;;16.50;99.90;;;;;;5001174;28;20056;-45
2023/09/27 07:50:15;;;;;;;36.30;32.72;;;16.50;99.90;;;;;;4983600;28;20159;-45
2023/09/27 07:52:41;;;;;;;38.17;34.78;;;16.60;99.90;;;;;;5001265;28;20068;-45
2023/09/27 07:55:10;;;;;;;37.28;33.78;;;16.60;99.90;;;;;;4983097;28;20099;-45
2023/09/27 07:57:36;;;;;;;36.15;32.88;;;16.70;99.90;;;;;;4967458;28;20108;-44
2023/09/27 08:00:08;;;;;;;36.63;33.35;;;16.80;99.90;;;;;;4967544;28;20050;-44
2023/09/27 08:02:34;;;;;;;35.83;32.58;;;16.90;99.90;;;;;;4980637;28;20054;-44
2023/09/27 08:05:02;;;;;;;35.85;32.40;;;17.20;99.90;;;;;;4987711;28;20100;-45
2023/09/27 08:07:28;;;;;;;34.38;31.45;;;17.40;99.90;;;;;;4986845;28;20080;-44
2023/09/27 08:09:54;;;;;;;35.35;32.00;;;17.40;99.90;;;;;;4987161;28;20100;-44
2023/09/27 08:12:20;;;;;;;35.22;31.83;;;17.50;99.90;;;;;;5005161;28;20524;-44
2023/09/27 08:14:46;;;;;;;36.33;32.55;;;17.70;99.90;;;;;;4971253;28;20034;-44
2023/09/27 08:17:11;;;;;;;34.88;31.33;;;17.80;99.90;;;;;;4986892;28;20091;-45
2023/09/27 08:19:38;;;;;;;33.58;30.25;;;17.90;99.90;;;;;;5005110;28;20449;-45
2023/09/27 08:22:04;;;;;;;35.38;31.88;;;18.00;99.90;;;;;;4987419;28;20525;-46
2023/09/27 08:24:29;;;;;;;33.70;30.60;;;18.10;99.90;;;;;;5004859;28;20046;-46
2023/09/27 08:26:55;;;;;;;31.83;28.83;;;18.10;99.90;;;;;;4986137;28;20147;-45
2023/09/27 08:29:21;;;;;;;34.08;30.77;;;18.10;99.90;;;;;;5004750;28;20034;-46
2023/09/27 08:31:47;;;;;;;32.55;29.52;;;18.10;99.90;;;;;;5004802;28;20497;-44
2023/09/27 08:34:13;;;;;;;34.22;31.00;;;18.20;99.90;;;;;;5004902;28;20046;-45
2023/09/27 08:36:39;;;;;;;33.08;30.08;;;18.30;99.90;;;;;;5004410;28;20057;-48
2023/09/27 08:39:04;;;;;;;34.85;31.70;;;18.40;99.90;;;;;;5005210;28;20048;-48
2023/09/27 08:41:30;;;;;;;33.22;30.27;;;18.50;99.90;;;;;;4984221;28;20100;-46
2023/09/27 08:43:57;;;;;;;33.42;30.15;;;18.60;99.90;;;;;;4995569;28;20319;-45
2023/09/27 08:46:24;;;;;;;35.40;31.83;;;18.70;99.90;;;;;;4986561;28;20161;-47
2023/09/27 08:48:51;;;;;;;34.92;31.42;;;18.60;99.90;;;;;;4987036;28;20091;-48
2023/09/27 08:51:17;;;;;;;32.17;29.08;;;18.70;99.90;;;;;;5004873;28;20073;-46
2023/09/27 08:53:43;;;;;;;32.20;29.20;;;18.80;99.90;;;;;;5005213;28;20124;-50
2023/09/27 08:56:14;;;;;;;33.05;29.90;;;18.90;99.90;;;;;;4986631;28;20500;-47
2023/09/27 08:58:40;;;;;;;30.98;28.02;;;19.00;99.90;;;;;;5004622;28;20045;-46
2023/09/27 09:01:09;;;;;;;31.15;28.10;;;19.10;99.90;;;;;;5004250;28;20046;-49
2023/09/27 09:03:36;;;;;;;30.15;27.33;;;19.10;99.90;;;;;;4995855;28;20133;-46
2023/09/27 09:06:04;;;;;;;31.63;28.73;;;19.10;99.90;;;;;;5003695;28;20038;-45
2023/09/27 09:08:30;;;;;;;31.73;28.63;;;19.10;99.90;;;;;;5003637;28;20050;-47
2023/09/27 09:10:56;;;;;;;30.98;28.02;;;19.20;99.90;;;;;;4997334;28;20070;-45
2023/09/27 09:13:22;;;;;;;30.65;27.58;;;19.20;99.90;;;;;;4980166;28;20049;-44
2023/09/27 09:15:49;;;;;;;29.48;26.58;;;19.30;99.90;;;;;;4985613;28;20125;-45
2023/09/27 09:18:32;;;;;;;29.77;26.88;;;19.50;99.90;;;;;;5003283;28;20069;-47
2023/09/27 09:21:08;;;;;;;30.00;27.23;;;19.60;99.90;;;;;;4986122;28;20836;-48
2023/09/27 09:23:36;;;;;;;28.95;25.90;;;19.60;99.90;;;;;;5003517;28;20046;-45
2023/09/27 09:26:09;;;;;;;28.13;25.23;;;19.70;99.90;;;;;;4985512;28;20120;-45
2023/09/27 09:28:53;;;;;;;27.98;25.40;;;19.70;99.90;;;;;;5003773;28;20116;-47
2023/09/27 09:31:26;;;;;;;26.45;24.05;;;19.80;99.90;;;;;;4985435;28;20080;-46
2023/09/27 09:34:06;;;;;;;27.33;24.50;;;19.90;99.90;;;;;;4985687;28;20091;-49
2023/09/27 09:36:32;;;;;;;27.48;23.73;;;19.90;99.90;;;;;;5003832;28;20057;-45
2023/09/27 09:39:14;;;;;;;25.00;22.40;;;19.80;99.90;;;;;;4986002;28;20500;-45
2023/09/27 09:41:52;;;;;;;26.33;23.60;;;19.80;99.90;;;;;;4999118;28;20057;-48
2023/09/27 09:44:23;;;;;;;25.02;22.42;;;19.80;99.90;;;;;;4984991;28;20513;-45
2023/09/27 09:46:51;;;;;;;26.77;23.85;;;19.80;99.90;;;;;;5003096;28;20124;-47
2023/09/27 09:49:17;;;;;;;27.08;24.10;;;19.80;99.90;;;;;;4985815;28;20085;-45
2023/09/27 09:51:52;;;;;;;25.92;22.52;;;19.90;99.90;;;;;;5004073;28;20133;-48
2023/09/27 09:54:34;;;;;;;22.23;19.85;;;20.00;99.90;;;;;;4969657;28;20072;-50
2023/09/27 09:57:01;;;;;;;21.85;19.52;;;20.00;99.90;;;;;;5003021;28;20057;-46
2023/09/27 09:59:56;;;;;;;23.25;20.75;;;20.10;99.90;;;;;;4985612;28;20187;-45
2023/09/27 10:02:27;;;;;;;26.00;23.17;;;20.10;99.90;;;;;;4985640;28;20050;-47
2023/09/27 10:04:55;;;;;;;24.27;21.60;;;20.10;99.90;;;;;;5002661;28;20042;-46
2023/09/27 10:07:22;;;;;;;24.02;21.45;;;20.10;99.90;;;;;;5002225;28;20042;-45
2023/09/27 10:09:49;;;;;;;23.75;21.20;;;20.00;99.90;;;;;;5002767;28;20231;-45
2023/09/27 10:12:17;;;;;;;22.45;19.20;;;20.00;99.90;;;;;;4972243;28;20048;-45
2023/09/27 10:14:45;;;;;;;22.50;18.67;;;19.90;99.90;;;;;;5002930;28;20046;-45
2023/09/27 10:17:22;;;;;;;22.38;19.75;;;19.90;99.90;;;;;;5001591;28;20137;-45
2023/09/27 10:20:12;;;;;;;21.52;19.23;;;19.80;99.90;;;;;;4984466;28;20049;-46
2023/09/27 10:22:39;;;;;;;21.70;19.48;;;19.80;99.90;;;;;;4991951;28;20048;-45
2023/09/27 10:25:05;;;;;;;24.88;20.42;;;19.70;99.90;;;;;;5001505;28;20112;-45
2023/09/27 10:27:55;;;;;;;22.92;20.55;;;19.70;99.90;;;;;;5002405;28;20387;-46
2023/09/27 10:30:21;;;;;;;26.45;21.63;;;19.80;99.90;;;;;;5002410;28;20104;-45
2023/09/27 10:32:46;;;;;;;23.80;21.45;;;19.80;99.90;;;;;;5002341;28;20053;-45
2023/09/27 10:35:17;;;;;;;23.42;20.83;;;19.80;99.90;;;;;;4988766;28;20431;-46
2023/09/27 10:37:59;;;;;;;24.70;22.05;;;19.80;99.90;;;;;;5001798;28;20042;-47
2023/09/27 10:40:25;;;;;;;24.00;21.25;;;19.80;99.90;;;;;;4992132;28;20045;-46
2023/09/27 10:42:51;;;;;;;24.05;21.52;;;19.80;99.90;;;;;;4971388;28;20042;-46
2023/09/27 10:45:17;;;;;;;21.02;18.02;;;19.80;99.90;;;;;;4984281;28;20119;-46
2023/09/27 10:47:43;;;;;;;19.35;17.27;;;19.80;99.90;;;;;;5001652;28;20071;-46
2023/09/27 10:50:10;;;;;;;23.05;17.00;;;19.80;99.90;;;;;;5001995;28;20145;-46
2023/09/27 10:52:37;;;;;;;21.35;19.23;;;19.90;99.90;;;;;;5002429;28;20033;-46
2023/09/27 10:55:11;;;;;;;21.48;16.73;;;20.00;99.90;;;;;;4983562;28;20053;-48
2023/09/27 10:57:39;;;;;;;24.13;19.02;;;20.00;99.90;;;;;;5001530;28;20045;-47
2023/09/27 11:00:10;;;;;;;20.98;18.60;;;20.00;99.90;;;;;;5002087;28;20129;-45
2023/09/27 11:02:36;;;;;;;22.15;18.20;;;20.10;99.90;;;;;;4983543;28;20092;-46
2023/09/27 11:05:01;;;;;;;19.42;17.50;;;20.10;99.90;;;;;;4984090;28;20030;-46
2023/09/27 11:07:48;;;;;;;20.75;18.52;;;20.20;99.90;;;;;;5001882;28;20041;-47
2023/09/27 11:10:33;;;;;;;20.27;18.10;;;20.20;99.90;;;;;;5001541;28;20175;-47
2023/09/27 11:13:12;;;;;;;19.67;17.02;;;20.30;99.90;;;;;;5001586;28;20068;-46
2023/09/27 11:15:39;;;;;;;22.08;17.23;;;20.40;99.90;;;;;;4999584;28;20040;-48
2023/09/27 11:18:07;;;;;;;22.83;17.75;;;20.40;99.90;;;;;;4983262;28;20038;-47
2023/09/27 11:20:32;;;;;;;19.95;16.40;;;20.50;99.90;;;;;;5001614;28;20052;-46
2023/09/27 11:22:59;;;;;;;22.67;16.85;;;20.50;99.90;;;;;;4967343;28;20053;-50
2023/09/27 11:25:26;;;;;;;18.60;14.93;;;20.50;99.90;;;;;;5001109;28;20049;-48
2023/09/27 11:27:52;;;;;;;18.85;14.48;;;20.50;99.90;;;;;;5000904;28;20052;-48
2023/09/27 11:30:30;;;;;;;18.70;14.45;;;20.50;99.90;;;;;;5001247;28;20041;-48
2023/09/27 11:33:04;;;;;;;20.15;13.55;;;20.50;99.90;;;;;;4983691;28;20061;-46
2023/09/27 11:35:31;;;;;;;18.60;14.68;;;20.60;99.90;;;;;;4983597;28;20129;-45
2023/09/27 11:38:13;;;;;;;15.05;13.55;;;20.60;99.90;;;;;;4983415;28;20084;-48
2023/09/27 11:40:42;;;;;;;13.95;11.10;;;20.70;99.90;;;;;;5001635;28;20526;-49
2023/09/27 11:43:07;;;;;;;12.85;10.75;;;20.90;99.90;;;;;;4971533;28;20046;-50
2023/09/27 11:45:47;;;;;;;16.75;11.13;;;21.20;99.90;;;;;;4983462;28;20504;-48
2023/09/27 11:48:14;;;;;;;21.42;11.77;;;21.30;99.90;;;;;;4982826;28;20149;-47
2023/09/27 11:50:39;;;;;;;15.60;9.93;;;21.40;99.90;;;;;;5001796;28;20046;-47
2023/09/27 11:53:05;;;;;;;12.65;10.00;;;21.50;99.90;;;;;;4983607;28;20465;-46
2023/09/27 11:55:31;;;;;;;13.43;10.00;;;21.60;99.90;;;;;;4967210;28;20346;-46
2023/09/27 11:57:57;;;;;;;13.82;10.13;;;21.80;99.90;;;;;;5000456;28;20065;-46
2023/09/27 12:00:23;;;;;;;12.38;9.50;;;21.80;99.90;;;;;;5001292;28;20384;-49
2023/09/27 12:02:48;;;;;;;13.73;10.70;;;21.70;99.90;;;;;;4994453;28;20480;-48
2023/09/27 12:05:15;;;;;;;12.32;10.32;;;21.70;99.90;;;;;;4967375;28;20044;-46
2023/09/27 12:07:41;;;;;;;13.27;11.32;;;21.50;99.90;;;;;;5001000;28;20046;-45
2023/09/27 12:10:07;;;;;;;13.27;10.40;;;21.50;99.90;;;;;;4980089;28;20104;-47
2023/09/27 12:12:33;;;;;;;12.23;9.32;;;21.30;99.90;;;;;;4981728;28;20051;-46
2023/09/27 12:15:00;;;;;;;12.55;9.95;;;21.30;99.90;;;;;;4981685;28;20096;-49
2023/09/27 12:17:26;;;;;;;11.55;10.02;;;21.30;99.90;;;;;;4981526;28;20125;-46
2023/09/27 12:19:51;;;;;;;14.20;11.15;;;21.30;99.90;;;;;;4980656;28;20042;-46
2023/09/27 12:22:19;;;;;;;13.50;10.57;;;21.30;99.90;;;;;;4980637;28;20677;-47
2023/09/27 12:24:45;;;;;;;13.10;9.68;;;21.30;99.90;;;;;;4981614;28;20758;-47
2023/09/27 12:27:11;;;;;;;11.98;9.77;;;21.40;99.90;;;;;;4980414;28;20152;-47
2023/09/27 12:29:37;;;;;;;13.25;11.60;;;21.50;99.90;;;;;;4981907;28;20042;-47